Time;durP1;ratioP1;P1;durP2;ratioP2;P2;SDS_P1;SDS_P2;PMS_P1;PMS_P2;Temp;Humidity;BMP_temperature;BMP_pressure;BME280_temperature;BME280_humidity;BME280_pressure;Samples;Min_cycle;Max_cycle;Signal;HPM_P1;HPM_P2
2022/09/25 00:01:22;;;;;;;33.43;26.43;;;;;;;13.38;100.00;101296.16;4997595;28;20216;-76
2022/09/25 00:03:48;;;;;;;35.40;28.43;;;;;;;13.37;100.00;101299.56;4974342;28;20218;-76
2022/09/25 00:06:16;;;;;;;34.63;27.50;;;;;;;13.38;100.00;101306.44;4976948;28;20191;-76
2022/09/25 00:08:42;;;;;;;31.87;26.27;;;;;;;13.37;100.00;101303.03;4976684;28;20197;-76
2022/09/25 00:11:11;;;;;;;37.30;27.63;;;;;;;13.38;100.00;101307.31;5000520;28;20210;-76
2022/09/25 00:13:38;;;;;;;35.20;27.70;;;;;;;13.37;100.00;101310.75;4988772;28;20882;-76
2022/09/25 00:16:04;;;;;;;35.77;28.23;;;;;;;13.38;100.00;101311.59;4983405;28;20187;-76
2022/09/25 00:21:16;;;;;;;35.77;26.97;;;;;;;13.37;100.00;101309.84;4944601;28;20239;-76
2022/09/25 00:23:43;;;;;;;35.90;25.80;;;;;;;13.37;100.00;101307.28;4984119;28;20188;-77
2022/09/25 00:26:10;;;;;;;35.73;25.77;;;;;;;13.35;100.00;101304.69;4986718;28;20196;-76
2022/09/25 00:28:39;;;;;;;33.37;25.57;;;;;;;13.36;100.00;101305.56;4997509;28;20187;-76
2022/09/25 00:31:06;;;;;;;31.00;24.07;;;;;;;13.35;100.00;101302.13;4988123;28;20207;-76
2022/09/25 00:33:32;;;;;;;34.17;24.87;;;;;;;13.35;100.00;101301.28;4984040;28;20279;-76
2022/09/25 00:36:03;;;;;;;34.03;25.03;;;;;;;13.35;100.00;101306.41;4981366;28;20196;-76
2022/09/25 00:38:30;;;;;;;32.47;24.53;;;;;;;13.33;100.00;101297.78;4990706;28;20191;-76
2022/09/25 00:40:56;;;;;;;33.80;24.47;;;;;;;13.31;100.00;101299.50;4984151;28;20380;-76
2022/09/25 00:43:49;;;;;;;34.60;23.67;;;;;;;13.33;100.00;101295.22;4989134;28;20283;-76
2022/09/25 00:46:29;;;;;;;30.53;22.87;;;;;;;13.30;100.00;101298.59;4984411;28;20256;-76
2022/09/25 00:49:11;;;;;;;32.33;23.20;;;;;;;13.27;100.00;101293.44;4988355;28;20204;-76
2022/09/25 00:51:41;;;;;;;30.97;21.70;;;;;;;13.29;100.00;101288.28;4980795;28;20215;-76
2022/09/25 00:54:15;;;;;;;31.20;23.03;;;;;;;13.29;100.00;101296.00;4987476;28;20703;-76
2022/09/25 00:56:45;;;;;;;30.47;22.87;;;;;;;13.26;100.00;101291.69;4977733;28;20676;-76
2022/09/25 00:59:26;;;;;;;31.87;21.83;;;;;;;13.23;100.00;101295.91;4993486;28;20317;-76
2022/09/25 01:01:52;;;;;;;34.67;23.50;;;;;;;13.23;100.00;101296.78;4981800;28;20314;-76
2022/09/25 01:04:18;;;;;;;26.73;21.03;;;;;;;13.22;100.00;101294.19;4987811;28;20270;-77
2022/09/25 01:06:44;;;;;;;30.47;21.70;;;;;;;13.22;100.00;101297.63;4985036;28;20283;-78
2022/09/25 01:09:10;;;;;;;29.77;21.53;;;;;;;13.22;100.00;101299.34;4994597;28;20830;-76
2022/09/25 01:11:35;;;;;;;28.83;22.27;;;;;;;13.23;100.00;101301.94;4997453;28;20211;-76
2022/09/25 01:14:04;;;;;;;29.13;22.30;;;;;;;13.22;100.00;101295.03;4999399;28;20203;-78
2022/09/25 01:16:49;;;;;;;29.80;22.07;;;;;;;13.19;100.00;101297.59;4997272;28;20191;-78
2022/09/25 01:19:34;;;;;;;29.07;21.57;;;;;;;13.20;100.00;101290.72;4994745;28;20663;-77
2022/09/25 01:22:13;;;;;;;32.97;23.20;;;;;;;13.18;100.00;101292.41;4999981;28;20566;-77
2022/09/25 01:24:48;;;;;;;29.67;22.03;;;;;;;13.16;100.00;101286.41;4992721;28;20244;-77
2022/09/25 01:27:22;;;;;;;27.83;21.83;;;;;;;13.13;100.00;101299.19;4992068;28;20650;-78
2022/09/25 01:29:52;;;;;;;30.80;21.57;;;;;;;13.15;100.00;101290.66;4997728;28;20187;-77
2022/09/25 01:32:40;;;;;;;32.83;24.10;;;;;;;13.11;100.00;101290.59;4993783;28;20211;-77
2022/09/25 01:35:32;;;;;;;34.77;24.97;;;;;;;13.12;100.00;101292.31;4994679;28;20232;-78
2022/09/25 01:38:27;;;;;;;36.57;24.03;;;;;;;13.11;100.00;101293.16;4993050;28;20231;-78
2022/09/25 01:41:01;;;;;;;34.03;24.10;;;;;;;13.10;100.00;101293.97;4994410;28;20306;-77
2022/09/25 01:43:38;;;;;;;32.80;23.77;;;;;;;13.09;100.00;101292.25;4999972;28;20187;-78
2022/09/25 01:46:26;;;;;;;34.93;24.03;;;;;;;13.10;100.00;101300.00;4996298;28;20197;-77
2022/09/25 01:48:56;;;;;;;31.43;22.80;;;;;;;13.07;100.00;101305.09;4997910;28;20184;-77
2022/09/25 01:51:29;;;;;;;30.97;23.10;;;;;;;13.08;100.00;101305.97;4995816;28;20257;-77
2022/09/25 01:54:00;;;;;;;31.17;22.93;;;;;;;13.08;100.00;101303.41;4997189;28;20284;-77
2022/09/25 01:56:32;;;;;;;30.83;21.70;;;;;;;13.09;100.00;101300.84;4989813;28;20215;-77
2022/09/25 01:59:28;;;;;;;30.43;22.20;;;;;;;13.07;100.00;101302.50;4996837;28;20282;-77
2022/09/25 02:01:55;;;;;;;32.53;23.47;;;;;;;13.08;100.00;101293.09;4961610;28;20693;-78
2022/09/25 02:04:34;;;;;;;32.60;23.17;;;;;;;13.07;100.00;101293.97;4995889;28;20242;-77
2022/09/25 02:07:05;;;;;;;35.17;24.93;;;;;;;13.07;100.00;101294.81;4996654;28;20200;-78
2022/09/25 02:09:44;;;;;;;31.53;23.60;;;;;;;13.08;100.00;101295.69;4992419;28;20187;-78
2022/09/25 02:12:22;;;;;;;32.53;24.07;;;;;;;13.07;100.00;101299.09;4993357;28;20215;-78
2022/09/25 02:14:52;;;;;;;33.27;23.77;;;;;;;13.08;100.00;101296.53;4999078;28;20864;-78
2022/09/25 02:23:04;;;;;;;32.73;23.33;;;;;;;13.09;100.00;101288.00;5002697;28;20306;-77
2022/09/25 02:25:37;;;;;;;34.80;24.03;;;;;;;13.09;100.00;101290.56;4998426;28;20199;-77
2022/09/25 02:28:03;;;;;;;37.53;25.60;;;;;;;13.09;100.00;101285.44;4987688;28;20198;-77
2022/09/25 02:30:28;;;;;;;29.80;21.87;;;;;;;13.10;100.00;101288.84;4996870;28;20191;-77
2022/09/25 02:32:56;;;;;;;32.17;21.97;;;;;;;13.09;100.00;101287.13;4999811;28;20206;-78
2022/09/25 02:35:23;;;;;;;34.57;22.50;;;;;;;13.07;100.00;101288.81;4990851;28;20196;-78
2022/09/25 02:37:49;;;;;;;36.37;22.13;;;;;;;13.06;100.00;101289.63;4999189;28;20192;-78
2022/09/25 02:40:15;;;;;;;35.63;22.77;;;;;;;13.06;100.00;101290.50;4998879;28;20680;-77
2022/09/25 02:42:44;;;;;;;35.23;21.60;;;;;;;13.04;100.00;101289.63;5012520;28;20212;-77
2022/09/25 02:45:22;;;;;;;33.67;20.80;;;;;;;13.03;100.00;101289.59;4991217;28;20186;-77
2022/09/25 02:48:12;;;;;;;35.83;21.77;;;;;;;13.04;100.00;101283.59;4990989;28;20188;-78
2022/09/25 02:51:03;;;;;;;36.50;21.97;;;;;;;13.05;100.00;101283.66;4993816;28;20187;-78
2022/09/25 02:54:03;;;;;;;38.67;22.53;;;;;;;13.03;100.00;101287.03;4991828;28;20212;-78
2022/09/25 02:56:35;;;;;;;39.70;23.20;;;;;;;13.02;100.00;101282.75;5001529;28;20197;-77
2022/09/25 02:59:18;;;;;;;42.40;22.80;;;;;;;13.02;100.00;101285.31;4994342;28;20202;-77
2022/09/25 03:01:46;;;;;;;39.93;22.97;;;;;;;13.02;100.00;101286.16;5009674;28;20321;-77
2022/09/25 03:04:15;;;;;;;36.17;22.27;;;;;;;13.03;100.00;101282.72;4997279;28;20245;-77
2022/09/25 03:06:41;;;;;;;35.73;21.40;;;;;;;13.00;100.00;101271.53;4992398;28;20195;-77
2022/09/25 03:09:09;;;;;;;39.93;21.57;;;;;;;13.04;100.00;101270.75;4987576;28;20298;-77
2022/09/25 03:11:41;;;;;;;33.73;20.63;;;;;;;13.03;100.00;101277.59;4993697;28;20208;-78
2022/09/25 03:14:06;;;;;;;38.00;21.27;;;;;;;13.03;100.00;101274.16;4994221;28;20195;-76
2022/09/25 03:16:35;;;;;;;40.80;22.47;;;;;;;13.04;100.00;101274.22;4991515;28;20188;-76
2022/09/25 03:19:02;;;;;;;44.70;23.77;;;;;;;13.05;100.00;101282.75;4988637;28;20599;-77
2022/09/25 03:21:27;;;;;;;46.47;22.70;;;;;;;13.03;100.00;101272.44;4983297;28;20307;-77
2022/09/25 03:23:55;;;;;;;48.03;23.93;;;;;;;13.04;100.00;101274.22;4985678;28;20291;-78
2022/09/25 03:26:23;;;;;;;47.87;23.83;;;;;;;13.03;100.00;101272.44;4996081;28;20574;-78
2022/09/25 03:28:48;;;;;;;50.97;25.93;;;;;;;13.03;100.00;101276.75;4996637;28;20854;-77
2022/09/25 03:31:14;;;;;;;54.50;25.30;;;;;;;13.01;100.00;101275.84;4989761;28;20214;-76
2022/09/25 03:33:41;;;;;;;50.43;26.10;;;;;;;13.03;100.00;101262.16;4988008;28;20195;-77
2022/09/25 03:36:15;;;;;;;50.23;25.27;;;;;;;13.03;100.00;101269.03;4984366;28;21147;-76
2022/09/25 03:38:42;;;;;;;50.13;24.90;;;;;;;13.05;100.00;101269.91;4978707;28;20221;-77
2022/09/25 03:41:09;;;;;;;51.90;25.77;;;;;;;13.06;100.00;101271.63;4992120;28;20214;-77
2022/09/25 03:43:39;;;;;;;48.83;25.00;;;;;;;13.05;100.00;101272.47;4984849;28;20192;-78
2022/09/25 03:46:11;;;;;;;54.60;25.03;;;;;;;13.01;100.00;101269.00;4989844;28;20231;-76
2022/09/25 03:48:37;;;;;;;49.43;25.20;;;;;;;13.04;100.00;101273.31;4991486;28;20643;-76
2022/09/25 03:51:03;;;;;;;49.53;24.80;;;;;;;13.03;100.00;101274.16;4989988;28;20208;-76
2022/09/25 03:53:32;;;;;;;51.63;26.00;;;;;;;13.02;100.00;101272.44;4983813;28;20818;-76
2022/09/25 03:55:59;;;;;;;48.17;25.37;;;;;;;13.05;100.00;101264.78;4987329;28;20226;-76
2022/09/25 03:58:25;;;;;;;54.83;25.33;;;;;;;13.05;100.00;101270.78;4988819;28;20192;-76
2022/09/25 04:00:51;;;;;;;54.07;24.90;;;;;;;13.04;100.00;101268.19;4979843;28;20224;-77
2022/09/25 04:03:16;;;;;;;49.07;26.03;;;;;;;13.03;100.00;101269.88;4985184;28;20191;-76
2022/09/25 04:05:42;;;;;;;53.83;24.47;;;;;;;13.01;100.00;101263.84;4986297;28;20189;-76
2022/09/25 04:08:09;;;;;;;55.13;25.73;;;;;;;12.99;100.00;101262.97;4980145;28;20183;-78
2022/09/25 04:10:37;;;;;;;54.37;24.70;;;;;;;12.98;100.00;101263.81;4976431;28;20235;-77
2022/09/25 04:13:07;;;;;;;60.93;25.27;;;;;;;12.96;100.00;101265.47;4978965;28;20366;-77
2022/09/25 04:15:33;;;;;;;60.77;25.97;;;;;;;12.96;100.00;101262.88;4975016;28;20208;-77
2022/09/25 04:17:58;;;;;;;55.10;24.63;;;;;;;12.94;100.00;101257.72;4987047;28;20196;-77
2022/09/25 04:20:24;;;;;;;60.23;26.67;;;;;;;12.96;100.00;101262.88;4987265;28;20226;-78
2022/09/25 04:22:49;;;;;;;57.77;24.87;;;;;;;12.95;100.00;101263.72;4978710;28;20265;-77
2022/09/25 04:25:15;;;;;;;54.17;24.13;;;;;;;12.99;100.00;101267.25;4975507;28;20275;-77
2022/09/25 04:27:42;;;;;;;53.90;24.60;;;;;;;12.97;100.00;101269.78;4981071;28;20697;-77
2022/09/25 04:30:09;;;;;;;53.67;24.43;;;;;;;12.98;100.00;101268.09;4983343;28;20191;-76
2022/09/25 04:35:19;;;;;;;52.03;23.97;;;;;;;12.98;100.00;101268.94;4986288;28;20769;-78
2022/09/25 04:37:44;;;;;;;49.57;23.00;;;;;;;12.95;100.00;101271.44;4984818;28;20191;-78
2022/09/25 04:40:10;;;;;;;48.37;22.70;;;;;;;12.93;100.00;101261.13;4994265;28;20273;-78
2022/09/25 04:42:35;;;;;;;45.30;22.10;;;;;;;12.95;100.00;101267.16;4977711;28;20568;-78
2022/09/25 04:45:00;;;;;;;43.30;21.23;;;;;;;12.98;100.00;101266.38;4994445;28;20205;-78
2022/09/25 04:47:30;;;;;;;45.97;22.17;;;;;;;12.97;100.00;101262.06;4977055;28;20275;-77
2022/09/25 04:49:55;;;;;;;50.07;22.33;;;;;;;12.95;100.00;101263.72;4983691;28;20291;-78
2022/09/25 04:52:20;;;;;;;46.00;22.53;;;;;;;12.98;100.00;101265.53;4985250;28;20286;-78
2022/09/25 04:54:46;;;;;;;43.07;20.63;;;;;;;12.99;100.00;101265.56;4987307;28;20669;-77
2022/09/25 04:57:17;;;;;;;43.17;19.40;;;;;;;13.00;100.00;101269.84;4994780;28;20253;-78
2022/09/25 04:59:43;;;;;;;44.00;20.63;;;;;;;13.01;100.00;101266.44;4990749;28;20556;-78
2022/09/25 05:02:13;;;;;;;39.43;19.63;;;;;;;13.00;100.00;101262.13;4997190;28;20219;-78
2022/09/25 05:04:38;;;;;;;43.33;20.27;;;;;;;13.01;100.00;101266.44;4985777;28;20662;-77
2022/09/25 05:07:04;;;;;;;42.80;20.37;;;;;;;13.03;100.00;101266.47;4988563;28;20196;-76
2022/09/25 05:09:30;;;;;;;45.37;22.27;;;;;;;13.01;100.00;101270.69;4989653;28;20188;-77
2022/09/25 05:11:56;;;;;;;42.47;20.90;;;;;;;13.01;100.00;101270.69;5001606;28;20219;-77
2022/09/25 05:14:22;;;;;;;42.87;20.90;;;;;;;13.00;100.00;101271.53;4996202;28;20190;-76
2022/09/25 05:16:48;;;;;;;42.43;21.17;;;;;;;12.99;100.00;101270.69;4999930;28;20283;-76
2022/09/25 05:19:14;;;;;;;40.60;21.50;;;;;;;13.01;100.00;101273.25;4998980;28;20274;-77
2022/09/25 05:21:40;;;;;;;39.80;20.87;;;;;;;13.00;100.00;101274.13;4995655;28;20227;-77
2022/09/25 05:24:07;;;;;;;41.73;21.80;;;;;;;13.00;100.00;101276.69;4994952;28;20273;-77
2022/09/25 05:26:33;;;;;;;42.70;21.10;;;;;;;13.00;100.00;101275.00;4994947;28;20208;-77
2022/09/25 05:28:59;;;;;;;42.67;21.73;;;;;;;13.00;100.00;101274.13;4998488;28;20200;-77
2022/09/25 05:31:25;;;;;;;39.80;21.63;;;;;;;13.01;100.00;101271.56;4995032;28;20298;-76
2022/09/25 05:33:51;;;;;;;43.83;22.00;;;;;;;13.03;100.00;101272.44;4991075;28;20278;-77
2022/09/25 05:36:17;;;;;;;39.23;21.00;;;;;;;13.02;100.00;101268.16;4998832;28;20275;-77
2022/09/25 05:38:43;;;;;;;41.80;21.40;;;;;;;13.04;100.00;101270.75;4996911;28;20270;-77
2022/09/25 05:41:09;;;;;;;41.17;20.37;;;;;;;13.04;100.00;101270.75;5000096;28;20329;-77
2022/09/25 05:43:44;;;;;;;44.27;21.60;;;;;;;13.05;100.00;101269.91;5001330;28;20642;-76
2022/09/25 05:46:13;;;;;;;43.03;21.37;;;;;;;13.07;100.00;101266.53;5003898;28;20687;-79
2022/09/25 05:48:39;;;;;;;44.47;21.73;;;;;;;13.06;100.00;101264.78;4982662;28;20192;-78
2022/09/25 05:51:05;;;;;;;45.03;21.73;;;;;;;13.05;100.00;101265.66;5001891;28;20586;-78
2022/09/25 05:53:31;;;;;;;42.27;21.87;;;;;;;13.07;100.00;101260.53;5007546;28;20199;-79
2022/09/25 05:56:02;;;;;;;40.37;21.33;;;;;;;13.08;100.00;101259.69;5000792;28;20210;-79
2022/09/25 05:58:29;;;;;;;44.07;22.60;;;;;;;13.09;100.00;101262.28;4978784;28;20192;-77
2022/09/25 06:00:58;;;;;;;39.57;21.80;;;;;;;13.10;100.00;101255.41;4995405;28;20231;-76
2022/09/25 06:03:24;;;;;;;39.53;21.60;;;;;;;13.11;100.00;101257.16;4991543;28;20183;-77
2022/09/25 06:05:50;;;;;;;36.80;21.07;;;;;;;13.13;100.00;101256.34;5000500;28;20227;-77
2022/09/25 06:08:15;;;;;;;37.13;20.50;;;;;;;13.15;100.00;101256.34;4994767;28;20214;-76
2022/09/25 06:10:41;;;;;;;38.63;21.23;;;;;;;13.19;100.00;101258.13;4998297;28;20652;-76
2022/09/25 06:13:07;;;;;;;33.30;20.23;;;;;;;13.21;100.00;101254.75;4992005;28;20215;-76
2022/09/25 06:15:36;;;;;;;32.80;19.77;;;;;;;13.22;100.00;101256.47;5001248;28;20194;-76
2022/09/25 06:18:04;;;;;;;33.30;19.37;;;;;;;13.24;100.00;101261.63;5000760;28;20199;-76
2022/09/25 06:20:30;;;;;;;31.00;19.10;;;;;;;13.24;100.00;101256.50;4998696;28;20211;-77
2022/09/25 06:22:56;;;;;;;35.53;20.43;;;;;;;13.26;100.00;101255.66;5000840;28;20266;-76
2022/09/25 06:25:24;;;;;;;34.03;20.43;;;;;;;13.29;100.00;101253.16;5003426;28;20199;-76
2022/09/25 06:27:55;;;;;;;29.87;18.83;;;;;;;13.32;100.00;101253.22;5007492;28;20207;-76
2022/09/25 06:30:22;;;;;;;31.30;19.67;;;;;;;13.35;100.00;101247.25;4993475;28;20284;-76
2022/09/25 06:32:49;;;;;;;34.50;19.93;;;;;;;13.38;100.00;101253.28;4989911;28;20219;-76
2022/09/25 06:35:15;;;;;;;29.97;19.60;;;;;;;13.41;100.00;101248.22;4999387;28;20273;-76
2022/09/25 06:37:40;;;;;;;31.77;19.73;;;;;;;13.45;100.00;101254.25;4999419;28;20195;-76
2022/09/25 06:40:07;;;;;;;32.70;21.30;;;;;;;13.45;100.00;101246.53;4997063;28;20202;-76
2022/09/25 06:42:34;;;;;;;31.77;20.53;;;;;;;13.50;100.00;101248.34;4996622;28;20229;-76
2022/09/25 06:45:00;;;;;;;30.33;19.73;;;;;;;13.52;100.00;101253.47;4999553;28;20326;-76
2022/09/25 06:47:25;;;;;;;30.47;20.93;;;;;;;13.54;100.00;101244.94;4996749;28;20187;-76
2022/09/25 06:49:51;;;;;;;30.67;20.30;;;;;;;13.57;100.00;101249.25;4998124;28;20688;-76
2022/09/25 06:52:17;;;;;;;29.70;19.40;;;;;;;13.63;100.00;101254.50;4998395;28;20246;-76
2022/09/25 06:54:42;;;;;;;30.37;20.43;;;;;;;13.60;100.00;101255.34;4998761;28;20783;-76
2022/09/25 06:57:08;;;;;;;32.17;21.73;;;;;;;13.61;100.00;101253.59;4995788;28;20776;-76
2022/09/25 06:59:34;;;;;;;33.57;22.73;;;;;;;13.65;100.00;101261.41;5004204;28;20219;-76
2022/09/25 07:03:43;;;;;;;32.20;21.87;;;;;;;13.68;100.00;101248.56;4995794;28;20230;-76
2022/09/25 07:04:50;;;;;;;31.30;21.47;;;;;;;13.70;100.00;101262.31;5002012;28;20192;-76
2022/09/25 07:07:19;;;;;;;33.67;21.60;;;;;;;13.72;100.00;101252.06;4991193;28;20195;-76
2022/09/25 07:09:49;;;;;;;31.97;21.07;;;;;;;13.73;100.00;101248.63;4996846;28;20187;-76
2022/09/25 07:12:16;;;;;;;29.87;20.47;;;;;;;13.78;100.00;101247.84;5005874;28;20207;-76
2022/09/25 07:14:43;;;;;;;29.83;20.93;;;;;;;13.82;100.00;101251.34;4999931;28;20899;-76
2022/09/25 07:17:08;;;;;;;30.20;20.37;;;;;;;13.84;100.00;101250.50;4988721;28;20556;-76
2022/09/25 07:19:34;;;;;;;33.87;20.70;;;;;;;13.84;100.00;101253.06;4996786;28;20204;-76
2022/09/25 07:21:59;;;;;;;29.80;20.60;;;;;;;13.85;100.00;101249.66;4998047;28;20223;-75
2022/09/25 07:24:25;;;;;;;32.90;20.97;;;;;;;13.79;100.00;101257.31;4986544;28;20189;-75
2022/09/25 07:26:51;;;;;;;34.03;22.27;;;;;;;13.84;100.00;101250.50;4993944;28;20282;-75
2022/09/25 07:29:17;;;;;;;32.47;21.63;;;;;;;13.90;100.00;101249.72;5001365;28;20200;-75
2022/09/25 07:31:43;;;;;;;31.17;21.10;;;;;;;13.91;100.00;101261.75;4993108;28;20249;-76
2022/09/25 07:34:11;;;;;;;30.73;20.07;;;;;;;13.93;100.00;101266.06;4987478;28;20235;-75
2022/09/25 07:36:38;;;;;;;28.87;21.03;;;;;;;13.97;100.00;101269.53;4996279;28;20195;-75
2022/09/25 07:39:05;;;;;;;28.97;20.53;;;;;;;13.97;99.50;101267.84;4989132;28;20202;-76
2022/09/25 07:41:31;;;;;;;27.30;19.87;;;;;;;14.00;99.89;101272.16;4994797;28;20219;-77
2022/09/25 07:43:57;;;;;;;31.53;20.87;;;;;;;14.01;99.99;101271.31;4978119;28;20678;-75
2022/09/25 07:46:23;;;;;;;28.93;20.67;;;;;;;14.03;99.48;101278.19;4993817;28;20184;-75
2022/09/25 07:48:49;;;;;;;29.37;20.50;;;;;;;14.08;99.62;101275.69;5000756;28;20724;-75
2022/09/25 07:51:15;;;;;;;30.90;20.70;;;;;;;14.04;100.00;101273.94;4990023;28;20208;-78
2022/09/25 07:53:42;;;;;;;30.33;22.17;;;;;;;14.02;100.00;101267.88;4982630;28;20192;-77
2022/09/25 07:56:09;;;;;;;29.10;20.97;;;;;;;14.06;99.99;101277.38;4981234;28;20188;-77
2022/09/25 07:58:35;;;;;;;29.23;21.23;;;;;;;14.08;100.00;101273.97;4984682;28;20196;-77
2022/09/25 08:01:03;;;;;;;30.60;21.57;;;;;;;14.11;100.00;101270.56;4978925;28;20219;-77
2022/09/25 08:03:29;;;;;;;29.50;20.03;;;;;;;14.16;100.00;101274.06;4975087;28;20192;-76
2022/09/25 08:05:59;;;;;;;29.03;20.83;;;;;;;14.16;99.56;101274.06;4981657;28;20207;-76
2022/09/25 08:08:28;;;;;;;27.33;19.87;;;;;;;14.23;99.23;101273.34;4981271;28;20241;-76
2022/09/25 08:11:06;;;;;;;27.07;20.57;;;;;;;14.29;98.50;101269.13;4986473;28;20188;-77
2022/09/25 08:13:32;;;;;;;27.37;20.37;;;;;;;14.36;98.16;101267.47;4977579;28;20693;-77
2022/09/25 08:16:01;;;;;;;25.80;19.70;;;;;;;14.35;98.31;101273.44;4973162;28;20658;-76
2022/09/25 08:18:26;;;;;;;26.53;19.77;;;;;;;14.34;98.37;101264.88;4980981;28;20197;-76
2022/09/25 08:20:51;;;;;;;26.03;19.50;;;;;;;14.36;97.69;101272.63;4979677;28;20669;-76
2022/09/25 08:23:17;;;;;;;27.20;19.87;;;;;;;14.31;98.37;101272.56;4977540;28;20199;-76
2022/09/25 08:25:47;;;;;;;25.13;18.70;;;;;;;14.32;97.87;101270.88;4979010;28;20210;-76
2022/09/25 08:28:12;;;;;;;24.33;18.37;;;;;;;14.33;98.24;101267.44;4990411;28;20196;-76
2022/09/25 08:30:38;;;;;;;24.87;18.97;;;;;;;14.37;97.79;101275.19;4988696;28;20220;-76
2022/09/25 08:33:03;;;;;;;25.17;19.80;;;;;;;14.33;98.01;101273.47;4992620;28;20214;-77
2022/09/25 08:35:29;;;;;;;31.40;20.40;;;;;;;14.31;97.54;101274.28;4996264;28;20224;-76
2022/09/25 08:37:56;;;;;;;27.13;20.27;;;;;;;14.33;97.24;101275.16;4987001;28;20196;-71
2022/09/25 08:40:27;;;;;;;25.43;19.53;;;;;;;14.39;97.51;101280.38;4994414;28;20199;-74
2022/09/25 08:42:54;;;;;;;24.40;18.73;;;;;;;14.46;98.02;101277.03;4990605;28;20705;-74
2022/09/25 08:51:04;;;;;;;24.57;18.93;;;;;;;14.48;97.84;101271.03;4997246;28;20207;-73
2022/09/25 08:53:30;;;;;;;21.43;17.60;;;;;;;14.49;97.90;101272.75;4992463;28;20204;-76
2022/09/25 08:56:14;;;;;;;20.70;16.27;;;;;;;14.48;97.99;101276.19;4996668;28;20211;-76
2022/09/25 08:58:50;;;;;;;21.37;17.13;;;;;;;14.49;98.16;101269.31;4996195;28;20185;-76
2022/09/25 09:01:29;;;;;;;21.30;17.63;;;;;;;14.49;98.01;101271.88;5000793;28;20226;-74
2022/09/25 09:04:18;;;;;;;23.10;17.80;;;;;;;14.48;97.24;101267.59;4996701;28;20286;-75
2022/09/25 09:06:45;;;;;;;24.73;18.53;;;;;;;14.55;96.82;101267.66;4999367;28;20188;-75
2022/09/25 09:09:36;;;;;;;24.07;18.07;;;;;;;14.65;96.76;101274.63;4991455;28;20191;-74
2022/09/25 09:12:08;;;;;;;24.00;18.80;;;;;;;14.75;96.72;101278.16;4993808;28;20214;-75
2022/09/25 09:14:41;;;;;;;24.60;19.30;;;;;;;14.85;96.49;101283.44;4994223;28;20618;-75
2022/09/25 09:17:21;;;;;;;25.33;19.50;;;;;;;14.87;95.81;101281.72;5012076;28;20214;-76
2022/09/25 09:19:58;;;;;;;24.57;19.00;;;;;;;14.91;96.36;101275.75;5002131;28;20268;-77
2022/09/25 09:22:47;;;;;;;22.53;17.70;;;;;;;14.96;96.45;101268.06;4999956;28;20218;-75
2022/09/25 09:25:28;;;;;;;26.60;19.70;;;;;;;15.04;95.82;101269.84;4979640;28;20196;-74
2022/09/25 09:28:05;;;;;;;25.00;18.87;;;;;;;15.13;95.42;101269.03;5002330;28;20214;-75
2022/09/25 09:30:59;;;;;;;24.63;19.33;;;;;;;15.16;95.73;101263.91;4998238;28;20191;-74
2022/09/25 09:33:41;;;;;;;23.23;18.63;;;;;;;15.15;94.98;101268.19;4972768;28;20295;-74
2022/09/25 09:36:12;;;;;;;23.07;18.43;;;;;;;15.20;95.23;101269.09;4998606;28;20262;-74
2022/09/25 09:38:43;;;;;;;24.43;18.30;;;;;;;15.18;94.79;101264.78;4995786;28;20204;-74
2022/09/25 09:41:36;;;;;;;21.87;17.63;;;;;;;15.18;94.69;101273.41;4999079;28;20222;-75
2022/09/25 09:44:35;;;;;;;24.47;18.20;;;;;;;15.21;94.63;101272.56;4997293;28;20290;-74
2022/09/25 09:47:30;;;;;;;23.23;18.20;;;;;;;15.22;94.08;101271.69;5000164;28;20199;-74
2022/09/25 09:50:12;;;;;;;21.90;17.10;;;;;;;15.25;92.96;101272.59;5001704;28;20242;-75
2022/09/25 09:52:41;;;;;;;22.43;16.50;;;;;;;15.26;93.80;101265.72;4994686;28;20254;-74
2022/09/25 09:55:31;;;;;;;22.23;17.73;;;;;;;15.27;93.62;101267.44;4997802;28;20264;-74
2022/09/25 09:58:05;;;;;;;23.53;18.27;;;;;;;15.30;93.34;101268.34;4998732;28;20681;-74
2022/09/25 10:00:31;;;;;;;22.83;18.70;;;;;;;15.23;93.79;101260.50;5000917;28;20207;-73
2022/09/25 10:03:13;;;;;;;24.50;19.13;;;;;;;15.22;94.26;101261.38;4996604;28;20215;-74
2022/09/25 10:05:46;;;;;;;24.10;18.20;;;;;;;15.13;94.31;101259.59;4994680;28;20286;-74
2022/09/25 10:08:11;;;;;;;22.93;18.13;;;;;;;15.14;93.95;101263.91;4999162;28;20531;-75
2022/09/25 10:10:40;;;;;;;22.70;17.67;;;;;;;15.10;94.62;101259.56;4997008;28;20184;-75
2022/09/25 10:13:15;;;;;;;18.40;16.07;;;;;;;15.12;93.68;101262.16;5013851;28;20186;-75
2022/09/25 10:15:50;;;;;;;20.20;15.90;;;;;;;15.07;93.52;101259.56;4997421;28;20190;-74
2022/09/25 10:18:17;;;;;;;20.60;16.93;;;;;;;15.10;94.40;101258.72;4996179;28;20259;-76
2022/09/25 10:21:09;;;;;;;22.13;17.37;;;;;;;15.04;95.04;101258.66;4985176;28;20239;-74
2022/09/25 10:23:45;;;;;;;20.37;15.83;;;;;;;15.06;95.45;101256.97;4999941;28;20215;-76
2022/09/25 10:26:35;;;;;;;16.03;13.87;;;;;;;15.06;95.39;101256.97;5005194;28;20202;-76
2022/09/25 10:29:07;;;;;;;17.90;14.37;;;;;;;15.06;95.25;101244.06;4991650;28;21009;-76
2022/09/25 10:31:38;;;;;;;18.23;14.33;;;;;;;15.04;95.84;101245.75;5003177;28;20684;-76
2022/09/25 10:34:15;;;;;;;14.27;12.07;;;;;;;15.05;95.94;101247.50;4982848;28;20196;-73
2022/09/25 10:36:47;;;;;;;8.73;7.43;;;;;;;14.99;96.04;101250.00;4999421;28;20599;-75
2022/09/25 10:39:33;;;;;;;5.83;5.23;;;;;;;15.01;96.36;101246.59;4998143;28;20194;-75
2022/09/25 10:42:00;;;;;;;5.47;4.97;;;;;;;15.00;96.51;101247.44;4994970;28;20556;-73
2022/09/25 10:44:32;;;;;;;5.20;4.70;;;;;;;15.01;96.98;101253.50;4991655;28;20215;-75
2022/09/25 10:50:16;;;;;;;7.17;6.50;;;;;;;14.82;97.21;101249.03;4988523;28;20205;-75
2022/09/25 10:52:54;;;;;;;9.80;8.30;;;;;;;14.76;96.04;101244.69;4989629;28;20297;-75
2022/09/25 10:55:27;;;;;;;9.30;8.40;;;;;;;14.84;96.03;101244.75;4987921;28;20218;-76
2022/09/25 10:58:23;;;;;;;10.33;9.23;;;;;;;14.82;96.25;101243.88;4980573;28;20196;-75
2022/09/25 11:00:48;;;;;;;11.67;10.47;;;;;;;14.73;96.48;101256.69;4972922;28;20694;-76
2022/09/25 11:03:40;;;;;;;10.90;9.70;;;;;;;14.74;96.58;101250.66;4987984;28;20187;-75
2022/09/25 11:06:19;;;;;;;11.23;10.13;;;;;;;14.76;96.66;101259.28;4983375;28;20184;-75
2022/09/25 11:08:48;;;;;;;10.83;9.10;;;;;;;14.70;96.33;101260.09;4994448;28;20195;-75
2022/09/25 11:11:21;;;;;;;9.90;8.93;;;;;;;14.60;96.90;101253.09;4975817;28;20235;-75
2022/09/25 11:13:51;;;;;;;8.40;7.70;;;;;;;14.47;97.28;101255.56;4984166;28;20198;-75
2022/09/25 11:16:18;;;;;;;8.77;7.97;;;;;;;14.47;97.42;101258.13;4990686;28;20206;-75
2022/09/25 11:19:03;;;;;;;8.50;7.67;;;;;;;14.49;97.50;101254.72;4981141;28;20188;-75
2022/09/25 11:21:36;;;;;;;8.50;7.67;;;;;;;14.49;97.53;101252.16;4989623;28;20310;-76
2022/09/25 11:24:14;;;;;;;9.33;8.43;;;;;;;14.50;97.40;101248.72;4983161;28;20275;-76
2022/09/25 11:27:22;;;;;;;8.90;8.10;;;;;;;14.47;97.03;101251.28;4986781;28;20195;-76
2022/09/25 11:30:13;;;;;;;9.33;8.43;;;;;;;14.52;97.86;101256.47;4975598;28;20732;-75
2022/09/25 11:32:49;;;;;;;9.63;8.17;;;;;;;14.52;97.93;101251.31;4976892;28;20216;-76
2022/09/25 11:35:33;;;;;;;8.73;7.80;;;;;;;14.51;97.96;101255.59;4978805;28;20605;-76
2022/09/25 11:38:02;;;;;;;9.00;8.20;;;;;;;14.44;97.40;101256.38;4973599;28;20959;-76
2022/09/25 11:44:06;;;;;;;10.10;7.83;;;;;;;14.38;97.48;101250.31;4984069;28;20599;-75
2022/09/25 11:47:10;;;;;;;8.63;7.83;;;;;;;14.39;97.82;101254.59;4981586;28;20262;-74